Shibin el-Kom, Egypt
Current Conditions -  °F | °C
As of 10:00 AM on Thursday 29 Jan 2015 (Local Time) from HECA Reporting Station
Haze Haze  
Wind Chill: 16°   Ceiling: Unl
Heat Index: 16°   Visibility: 2.5mi
Dew Point:   Wind: 3mph
Humidity: 36%   Direction: 230°SW
Pressure: 30"   Gusts: NA
Location:  30.59°N, 30.9°E
Report Text: HECA 290800Z 23003KT 4000 HZ NSC 16/01 Q1016 NOSIG
Loading
Personal Weather Stations






























Interactive Weather Map New forecast layout! Learn more

10-Day Weather Forecast

Advertisements
Track Severe Weather on mobile